TimeEDT,TemperatureF,Dew PointF,Humidity,Sea Level PressureIn,VisibilityMPH,Wind Direction,Wind SpeedMPH,Gust SpeedMPH,PrecipitationIn,Events,Conditions,WindDirDegrees,DateUTC
12:53 AM,80.1,64.0,58,29.99,10.0,SW,11.5,24.2,N/A,,Partly Cloudy,230,2013-08-26 04:53:00
1:53 AM,79.0,64.0,60,29.98,10.0,SW,12.7,24.2,N/A,,Clear,230,2013-08-26 05:53:00
2:53 AM,78.1,64.9,64,30.01,10.0,WSW,8.1,-,N/A,,Clear,250,2013-08-26 06:53:00
3:53 AM,77.0,66.0,69,29.99,10.0,Variable,4.6,-,N/A,,Partly Cloudy,0,2013-08-26 07:53:00
4:53 AM,77.0,66.0,69,29.99,10.0,SW,8.1,-,N/A,,Clear,230,2013-08-26 08:53:00
5:53 AM,78.1,66.0,66,29.98,10.0,WSW,8.1,-,N/A,Thunderstorm,Partly Cloudy,240,2013-08-26 09:53:00
6:12 AM,75.2,66.2,73,30.01,2.5,WSW,10.4,-,0.09,Rain,Heavy Rain,240,2013-08-26 10:12:00
6:22 AM,73.4,68.0,83,30.02,7.0,SSW,4.6,-,0.09,Rain-Thunderstorm,Light Rain,210,2013-08-26 10:22:00
6:50 AM,73.4,68.0,83,30.02,9.0,Calm,Calm,-,0.09,Rain,Light Rain,0,2013-08-26 10:50:00
6:53 AM,73.9,68.0,82,30.01,10.0,Variable,4.6,-,0.09,Rain,Light Rain,0,2013-08-26 10:53:00
7:53 AM,75.0,66.9,76,30.01,9.0,West,9.2,-,0.00,,Overcast,280,2013-08-26 11:53:00
8:12 AM,75.2,66.2,73,30.07,10.0,West,12.7,-,N/A,Thunderstorm,Thunderstorm,280,2013-08-26 12:12:00
8:23 AM,73.4,68.0,83,30.05,1.5,WNW,13.8,26.5,0.09,Rain-Thunderstorm,Heavy Thunderstorms and Rain,290,2013-08-26 12:23:00
8:28 AM,71.6,68.0,88,30.05,3.0,West,10.4,-,0.10,Rain-Thunderstorm,Thunderstorms and Rain,280,2013-08-26 12:28:00
8:53 AM,72.0,69.1,91,30.04,8.0,SSW,4.6,-,0.11,,Overcast,200,2013-08-26 12:53:00
9:53 AM,72.0,69.1,91,29.99,7.0,Variable,5.8,-,0.00,Rain,Light Rain,0,2013-08-26 13:53:00
10:53 AM,73.0,69.1,87,29.97,7.0,Variable,3.5,-,0.00,,Overcast,0,2013-08-26 14:53:00
11:53 AM,75.9,70.0,82,30.00,9.0,Calm,Calm,-,N/A,,Overcast,0,2013-08-26 15:53:00
12:53 PM,82.0,69.1,65,30.01,10.0,WNW,6.9,-,N/A,,Overcast,300,2013-08-26 16:53:00
1:53 PM,82.9,66.9,58,29.98,10.0,Variable,3.5,-,N/A,,Mostly Cloudy,0,2013-08-26 17:53:00
2:53 PM,84.0,66.9,56,29.95,10.0,NNE,5.8,-,N/A,,Mostly Cloudy,30,2013-08-26 18:53:00
3:53 PM,88.0,66.9,49,29.93,10.0,West,5.8,-,N/A,,Mostly Cloudy,280,2013-08-26 19:53:00
4:53 PM,88.0,63.0,43,29.94,10.0,West,10.4,18.4,N/A,,Scattered Clouds,270,2013-08-26 20:53:00
5:53 PM,86.0,63.0,46,29.94,10.0,WNW,15.0,-,N/A,,Scattered Clouds,290,2013-08-26 21:53:00
6:53 PM,82.9,64.0,53,29.95,10.0,WNW,11.5,-,N/A,,Scattered Clouds,290,2013-08-26 22:53:00
7:53 PM,81.0,66.0,60,29.94,10.0,West,6.9,-,N/A,,Scattered Clouds,280,2013-08-26 23:53:00
8:53 PM,75.9,66.0,71,29.94,10.0,Calm,Calm,-,N/A,,Scattered Clouds,0,2013-08-27 00:53:00
9:53 PM,73.9,66.9,79,29.95,10.0,Calm,Calm,-,N/A,,Scattered Clouds,0,2013-08-27 01:53:00
10:53 PM,71.1,66.0,84,29.95,10.0,Calm,Calm,-,N/A,,Clear,0,2013-08-27 02:53:00
11:53 PM,71.1,66.0,84,29.94,10.0,Calm,Calm,-,N/A,,Clear,0,2013-08-27 03:53:00